createdAt,value
2019-02-11T00:00:04.902Z,2
2019-02-11T00:00:12.806Z,1.9
2019-02-11T00:00:21.689Z,1.8
2019-02-11T00:00:29.584Z,1.7
2019-02-11T00:00:37.448Z,1.8
2019-02-11T00:00:45.340Z,1.8
2019-02-11T00:00:53.224Z,1.8
2019-02-11T00:01:01.110Z,1.8
2019-02-11T00:01:08.982Z,1.7
2019-02-11T00:01:18.872Z,1.6
2019-02-11T00:01:26.751Z,1.8
2019-02-11T00:01:34.701Z,1.8
2019-02-11T00:01:42.608Z,1.8
2019-02-11T00:01:50.531Z,1.8
2019-02-11T00:01:58.444Z,1.7
2019-02-11T00:02:06.330Z,1.8
2019-02-11T00:02:14.208Z,1.7
2019-02-11T00:02:22.092Z,1.7
2019-02-11T00:02:30.024Z,1.8
2019-02-11T00:02:37.875Z,1.7
2019-02-11T00:02:45.774Z,1.9
2019-02-11T00:02:53.703Z,1.8
2019-02-11T00:03:02.581Z,1.9
2019-02-11T00:03:10.440Z,1.8
2019-02-11T00:03:18.321Z,1.8
2019-02-11T00:03:26.201Z,1.9
2019-02-11T00:03:34.074Z,1.9
2019-02-11T00:03:41.946Z,1.9
2019-02-11T00:03:49.849Z,1.9
2019-02-11T00:04:01.674Z,1.9
2019-02-11T00:04:09.566Z,1.9
2019-02-11T00:04:17.464Z,1.8
2019-02-11T00:04:25.379Z,1.8
2019-02-11T00:04:33.238Z,1.7
2019-02-11T00:04:41.141Z,1.6
2019-02-11T00:04:49.036Z,1.6
2019-02-11T00:04:56.947Z,1.6
2019-02-11T00:05:05.849Z,1.6
2019-02-11T00:05:13.790Z,1.7
2019-02-11T00:05:21.674Z,1.6
2019-02-11T00:05:29.576Z,1.7
2019-02-11T00:05:37.471Z,1.8
2019-02-11T00:05:45.368Z,2
2019-02-11T00:05:54.223Z,2.1
2019-02-11T00:06:02.092Z,2.1
2019-02-11T00:06:09.960Z,1.7
2019-02-11T00:06:17.920Z,1.8
2019-02-11T00:06:26.136Z,1.7
2019-02-11T00:06:34.074Z,1.8
2019-02-11T00:06:41.990Z,1.8
2019-02-11T00:06:49.877Z,1.6
2019-02-11T00:06:57.793Z,1.7
2019-02-11T00:07:05.685Z,1.7
2019-02-11T00:07:13.608Z,1.7
2019-02-11T00:07:21.480Z,1.8
2019-02-11T00:07:29.402Z,1.8
2019-02-11T00:07:37.311Z,1.8
2019-02-11T00:07:45.245Z,1.7
2019-02-11T00:07:53.120Z,1.6
2019-02-11T00:08:01.008Z,1.4
2019-02-11T00:08:08.899Z,1.6
2019-02-11T00:08:17.796Z,1.7
2019-02-11T00:08:25.677Z,1.8
2019-02-11T00:08:33.563Z,1.8
2019-02-11T00:08:41.455Z,1.7
2019-02-11T00:08:49.330Z,1.8
2019-02-11T00:08:57.205Z,1.8
2019-02-11T00:09:06.081Z,1.7
2019-02-11T00:09:13.970Z,1.7
2019-02-11T00:09:21.836Z,1.7
2019-02-11T00:09:29.751Z,1.6
2019-02-11T00:09:37.624Z,1.6
2019-02-11T00:09:45.640Z,1.7
2019-02-11T00:09:53.576Z,1.8
2019-02-11T00:10:01.465Z,1.8
2019-02-11T00:10:10.347Z,1.8
2019-02-11T00:10:18.280Z,1.7
2019-02-11T00:10:27.177Z,1.6
2019-02-11T00:10:35.072Z,1.7
2019-02-11T00:10:42.948Z,1.6
2019-02-11T00:10:50.830Z,1.8
2019-02-11T00:10:59.676Z,1.9
2019-02-11T00:11:07.618Z,2
2019-02-11T00:11:15.572Z,2.1
2019-02-11T00:11:23.459Z,2.1
2019-02-11T00:11:31.345Z,2
2019-02-11T00:11:39.251Z,1.9
2019-02-11T00:11:47.164Z,1.9
2019-02-11T00:11:55.041Z,1.8
2019-02-11T00:12:02.913Z,1.8
2019-02-11T00:12:10.780Z,1.8
2019-02-11T00:12:18.658Z,1.8
2019-02-11T00:12:26.528Z,1.7
2019-02-11T00:12:34.468Z,1.7
2019-02-11T00:12:43.339Z,1.8
2019-02-11T00:12:51.414Z,1.7
2019-02-11T00:12:59.294Z,1.8
2019-02-11T00:13:11.163Z,1.8
2019-02-11T00:13:19.042Z,1.7
2019-02-11T00:13:27.913Z,1.6
2019-02-11T00:13:35.781Z,1.5
2019-02-11T00:13:43.664Z,1.5
2019-02-11T00:13:51.559Z,1.7
2019-02-11T00:14:00.009Z,1.6
2019-02-11T00:14:07.871Z,1.7
2019-02-11T00:14:15.766Z,1.8
2019-02-11T00:14:24.669Z,1.8
2019-02-11T00:14:32.608Z,1.9
2019-02-11T00:14:41.478Z,1.8
2019-02-11T00:14:49.392Z,1.7
2019-02-11T00:14:57.288Z,1.7
2019-02-11T00:15:05.158Z,1.7
2019-02-11T00:15:14.019Z,1.8
2019-02-11T00:15:21.909Z,1.8
2019-02-11T00:15:29.790Z,1.7
2019-02-11T00:15:38.665Z,1.7
2019-02-11T00:15:46.556Z,1.6
2019-02-11T00:15:54.516Z,1.7
2019-02-11T00:16:03.381Z,1.8
2019-02-11T00:16:12.276Z,1.9
2019-02-11T00:16:20.214Z,1.9
2019-02-11T00:16:28.083Z,1.9
2019-02-11T00:16:35.980Z,1.7
2019-02-11T00:16:44.868Z,1.6
2019-02-11T00:16:52.769Z,1.5
2019-02-11T00:17:00.684Z,1.5
2019-02-11T00:17:08.638Z,1.6
2019-02-11T00:17:16.538Z,1.6
2019-02-11T00:17:24.440Z,1.7
2019-02-11T00:17:32.337Z,1.7
2019-02-11T00:17:40.214Z,1.9
2019-02-11T00:17:48.121Z,1.8
2019-02-11T00:17:56.050Z,1.9
2019-02-11T00:18:03.951Z,1.7
2019-02-11T00:18:11.832Z,1.6
2019-02-11T00:18:20.746Z,1.7
2019-02-11T00:18:28.658Z,1.6
2019-02-11T00:18:36.574Z,1.6
2019-02-11T00:18:44.576Z,1.6
2019-02-11T00:18:52.468Z,1.6
2019-02-11T00:19:00.396Z,1.8
2019-02-11T00:19:08.272Z,1.9
2019-02-11T00:19:17.162Z,1.9
2019-02-11T00:19:25.037Z,1.9
2019-02-11T00:19:32.922Z,1.6
2019-02-11T00:19:40.864Z,1.7
2019-02-11T00:19:48.809Z,1.6
2019-02-11T00:19:56.715Z,1.7
2019-02-11T00:20:04.615Z,1.8
2019-02-11T00:20:12.508Z,1.8
2019-02-11T00:20:20.387Z,1.7
2019-02-11T00:20:28.269Z,1.5
2019-02-11T00:20:36.149Z,1.6
2019-02-11T00:20:44.057Z,1.6
2019-02-11T00:20:51.928Z,1.7
2019-02-11T00:20:59.812Z,1.6
2019-02-11T00:21:07.744Z,1.6
2019-02-11T00:21:15.667Z,1.7
2019-02-11T00:21:23.565Z,1.7
2019-02-11T00:21:31.467Z,1.7
2019-02-11T00:21:39.377Z,1.7
2019-02-11T00:21:47.251Z,1.8
2019-02-11T00:21:55.173Z,1.9
2019-02-11T00:22:03.059Z,1.8
2019-02-11T00:22:10.978Z,1.9
2019-02-11T00:22:18.865Z,1.7
2019-02-11T00:22:26.741Z,1.6
2019-02-11T00:22:34.657Z,1.7
2019-02-11T00:22:42.527Z,1.7
2019-02-11T00:22:50.445Z,1.7
2019-02-11T00:22:58.356Z,1.7
2019-02-11T00:23:06.269Z,1.6
2019-02-11T00:23:14.208Z,1.6
2019-02-11T00:23:23.115Z,1.5
2019-02-11T00:23:31.991Z,1.6
2019-02-11T00:23:39.889Z,1.7
2019-02-11T00:23:49.300Z,1.9
2019-02-11T00:23:57.206Z,1.9
2019-02-11T00:24:06.094Z,1.8
2019-02-11T00:24:15.043Z,1.9
2019-02-11T00:24:22.958Z,1.8
2019-02-11T00:24:30.853Z,1.8
2019-02-11T00:24:38.744Z,1.8
2019-02-11T00:24:46.803Z,1.6
2019-02-11T00:24:54.723Z,1.7
2019-02-11T00:25:02.609Z,1.6
2019-02-11T00:25:10.515Z,1.7
2019-02-11T00:25:18.377Z,1.7
2019-02-11T00:25:26.259Z,1.6
2019-02-11T00:25:34.146Z,1.7
2019-02-11T00:25:42.012Z,1.6
2019-02-11T00:25:50.030Z,1.7
2019-02-11T00:25:57.941Z,1.7
2019-02-11T00:26:05.826Z,1.6
2019-02-11T00:26:13.710Z,1.7
2019-02-11T00:26:21.594Z,1.7
2019-02-11T00:26:29.483Z,1.6
2019-02-11T00:26:38.388Z,1.6
2019-02-11T00:26:46.262Z,1.6
2019-02-11T00:26:54.185Z,1.5
2019-02-11T00:27:02.057Z,1.5
2019-02-11T00:27:09.935Z,1.6
2019-02-11T00:27:17.836Z,1.6
2019-02-11T00:27:25.756Z,1.6
2019-02-11T00:27:33.654Z,1.8
2019-02-11T00:27:41.530Z,1.7
2019-02-11T00:27:49.411Z,1.7
2019-02-11T00:27:57.320Z,1.6
2019-02-11T00:28:05.214Z,1.6
2019-02-11T00:28:13.087Z,1.6
2019-02-11T00:28:20.970Z,1.7
2019-02-11T00:28:29.839Z,1.7
2019-02-11T00:28:37.728Z,1.8
2019-02-11T00:28:46.764Z,1.8
2019-02-11T00:28:54.695Z,1.8
2019-02-11T00:29:02.575Z,1.8
2019-02-11T00:29:10.478Z,1.7
2019-02-11T00:29:18.351Z,1.6
2019-02-11T00:29:27.267Z,1.5
2019-02-11T00:29:35.806Z,1.6
2019-02-11T00:29:43.735Z,1.6
2019-02-11T00:29:51.624Z,1.6
2019-02-11T00:29:59.548Z,1.6
2019-02-11T00:30:07.442Z,1.6
2019-02-11T00:30:15.319Z,1.6
2019-02-11T00:30:23.208Z,1.6
2019-02-11T00:30:31.125Z,1.8
2019-02-11T00:30:39.003Z,1.6
2019-02-11T00:30:46.895Z,1.8
2019-02-11T00:30:54.772Z,1.8
2019-02-11T00:31:03.685Z,1.8
2019-02-11T00:31:11.612Z,1.8
2019-02-11T00:31:20.498Z,1.8
2019-02-11T00:31:28.365Z,1.9
2019-02-11T00:31:36.222Z,1.8
2019-02-11T00:31:44.093Z,1.8
2019-02-11T00:31:52.015Z,1.6
2019-02-11T00:31:59.901Z,1.7
2019-02-11T00:32:07.805Z,1.8
2019-02-11T00:32:15.703Z,1.9
2019-02-11T00:32:23.604Z,2
2019-02-11T00:32:31.527Z,1.9
2019-02-11T00:32:39.416Z,1.9
2019-02-11T00:32:47.377Z,1.7
2019-02-11T00:32:56.427Z,1.8
2019-02-11T00:33:04.295Z,1.8
2019-02-11T00:33:12.190Z,1.9
2019-02-11T00:33:20.080Z,1.9
2019-02-11T00:33:27.933Z,1.9
2019-02-11T00:33:35.805Z,1.8
2019-02-11T00:33:43.708Z,1.8
2019-02-11T00:33:51.639Z,1.7
2019-02-11T00:33:59.548Z,1.8
2019-02-11T00:34:07.419Z,1.6
2019-02-11T00:34:15.303Z,1.6
2019-02-11T00:34:23.185Z,1.4
2019-02-11T00:34:31.074Z,1.4
2019-02-11T00:34:38.956Z,1.6
2019-02-11T00:34:46.847Z,1.6
2019-02-11T00:34:54.728Z,1.7
2019-02-11T00:35:02.621Z,1.8
2019-02-11T00:35:10.526Z,1.7
2019-02-11T00:35:18.426Z,1.6
2019-02-11T00:35:26.341Z,1.5
2019-02-11T00:35:34.251Z,1.4
2019-02-11T00:35:42.140Z,1.5
2019-02-11T00:35:50.053Z,1.5
2019-02-11T00:35:57.975Z,1.6
2019-02-11T00:36:05.860Z,1.5
2019-02-11T00:36:13.746Z,1.6
2019-02-11T00:36:21.632Z,1.8
2019-02-11T00:36:30.502Z,1.8
2019-02-11T00:36:38.440Z,1.8
2019-02-11T00:36:46.339Z,1.8
2019-02-11T00:36:55.228Z,1.4
2019-02-11T00:37:03.098Z,1.4
2019-02-11T00:37:10.988Z,1.6
2019-02-11T00:37:18.899Z,1.7
2019-02-11T00:37:26.765Z,1.9
2019-02-11T00:37:34.680Z,1.8
2019-02-11T00:37:42.573Z,1.8
2019-02-11T00:37:51.436Z,1.8
2019-02-11T00:37:59.297Z,1.8
2019-02-11T00:38:07.177Z,1.9
2019-02-11T00:38:15.081Z,2
2019-02-11T00:38:22.957Z,1.9
2019-02-11T00:38:30.860Z,1.8
2019-02-11T00:38:38.743Z,1.8
2019-02-11T00:38:46.729Z,1.8
2019-02-11T00:38:54.647Z,1.7
2019-02-11T00:39:02.583Z,1.8
2019-02-11T00:39:11.460Z,1.6
2019-02-11T00:39:19.349Z,1.5
2019-02-11T00:39:27.223Z,1.5
2019-02-11T00:39:35.159Z,1.5
2019-02-11T00:39:43.030Z,1.6
2019-02-11T00:39:50.932Z,1.6
2019-02-11T00:39:58.850Z,1.5
2019-02-11T00:40:06.719Z,1.5
2019-02-11T00:40:15.569Z,1.4
2019-02-11T00:40:23.437Z,1.5
2019-02-11T00:40:31.328Z,1.7
2019-02-11T00:40:39.205Z,1.6
2019-02-11T00:40:47.085Z,1.6
2019-02-11T00:40:55.975Z,1.5
2019-02-11T00:41:04.885Z,1.4
2019-02-11T00:41:12.773Z,1.4
2019-02-11T00:41:20.684Z,1.4
2019-02-11T00:41:28.560Z,1.4
2019-02-11T00:41:36.470Z,1.5
2019-02-11T00:41:44.499Z,1.6
2019-02-11T00:41:52.289Z,1.7
2019-02-11T00:42:00.198Z,1.8
2019-02-11T00:42:08.080Z,1.8
2019-02-11T00:42:15.947Z,1.8
2019-02-11T00:42:23.848Z,2
2019-02-11T00:42:31.784Z,1.9
2019-02-11T00:42:39.666Z,1.8
2019-02-11T00:42:47.567Z,1.8
2019-02-11T00:42:55.456Z,1.7
2019-02-11T00:43:03.349Z,1.6
2019-02-11T00:43:18.845Z,1.7
2019-02-11T00:43:23.072Z,1.7
2019-02-11T00:43:30.933Z,1.7
2019-02-11T00:43:38.786Z,1.6
2019-02-11T00:43:46.773Z,1.6
2019-02-11T00:43:54.693Z,1.7
2019-02-11T00:44:02.575Z,1.7
2019-02-11T00:44:10.480Z,1.8
2019-02-11T00:44:18.394Z,1.7
2019-02-11T00:44:26.291Z,1.7
2019-02-11T00:44:34.145Z,1.6
2019-02-11T00:44:42.065Z,1.6
2019-02-11T00:44:50.939Z,1.6
2019-02-11T00:44:58.837Z,1.6
2019-02-11T00:45:06.719Z,1.5
2019-02-11T00:45:14.619Z,1.6
2019-02-11T00:45:22.487Z,1.7
2019-02-11T00:45:30.370Z,1.6
2019-02-11T00:45:38.267Z,1.8
2019-02-11T00:45:46.168Z,1.8
2019-02-11T00:45:54.044Z,1.7
2019-02-11T00:46:01.967Z,1.6
2019-02-11T00:46:09.845Z,1.5
2019-02-11T00:46:17.742Z,1.5
2019-02-11T00:46:25.639Z,1.5
2019-02-11T00:46:33.570Z,1.5
2019-02-11T00:46:41.508Z,1.7
2019-02-11T00:46:49.385Z,1.7
2019-02-11T00:46:57.308Z,1.7
2019-02-11T00:47:05.195Z,1.6
2019-02-11T00:47:13.135Z,1.5
2019-02-11T00:47:20.986Z,1.4
2019-02-11T00:47:28.863Z,1.5
2019-02-11T00:47:37.777Z,1.6
2019-02-11T00:47:45.760Z,1.7
2019-02-11T00:47:53.697Z,1.6
2019-02-11T00:48:01.585Z,1.7
2019-02-11T00:48:10.469Z,1.7
2019-02-11T00:48:18.385Z,1.5
2019-02-11T00:48:26.255Z,1.5
2019-02-11T00:48:34.133Z,1.5
2019-02-11T00:48:42.055Z,1.5
2019-02-11T00:48:49.957Z,1.6
2019-02-11T00:48:57.826Z,1.7
2019-02-11T00:49:06.691Z,1.7
2019-02-11T00:49:14.582Z,1.7
2019-02-11T00:49:23.481Z,1.7
2019-02-11T00:49:31.370Z,1.8
2019-02-11T00:49:39.232Z,1.6
2019-02-11T00:49:47.122Z,1.6
2019-02-11T00:49:55.040Z,1.7
2019-02-11T00:50:02.959Z,1.5
2019-02-11T00:50:10.880Z,1.6
2019-02-11T00:50:18.784Z,1.7
2019-02-11T00:50:26.660Z,1.5
2019-02-11T00:50:34.547Z,1.5
2019-02-11T00:50:42.467Z,1.5
2019-02-11T00:50:50.342Z,1.5
2019-02-11T00:50:58.217Z,1.6
2019-02-11T00:51:06.148Z,1.7
2019-02-11T00:51:14.019Z,1.8
2019-02-11T00:51:21.938Z,1.6
2019-02-11T00:51:29.842Z,1.8
2019-02-11T00:51:37.747Z,1.9
2019-02-11T00:51:45.790Z,1.7
2019-02-11T00:51:54.669Z,1.7
2019-02-11T00:52:02.559Z,1.5
2019-02-11T00:52:10.468Z,1.3
2019-02-11T00:52:18.325Z,1.5
2019-02-11T00:52:26.208Z,1.5
2019-02-11T00:52:34.138Z,1.6
2019-02-11T00:52:42.049Z,1.6
2019-02-11T00:52:50.041Z,1.7
2019-02-11T00:52:57.941Z,1.6
2019-02-11T00:53:05.807Z,1.5
2019-02-11T00:53:13.693Z,1.5
2019-02-11T00:53:21.635Z,1.5
2019-02-11T00:53:30.538Z,1.5
2019-02-11T00:53:38.408Z,1.6
2019-02-11T00:53:48.302Z,1.6
2019-02-11T00:53:56.206Z,1.6
2019-02-11T00:54:04.101Z,1.5
2019-02-11T00:54:12.050Z,1.5
2019-02-11T00:54:19.911Z,1.3
2019-02-11T00:54:27.787Z,1.3
2019-02-11T00:54:35.671Z,1.3
2019-02-11T00:54:43.561Z,1.3
2019-02-11T00:54:52.433Z,1.4
2019-02-11T00:55:00.352Z,1.6
2019-02-11T00:55:08.268Z,1.8
2019-02-11T00:55:16.166Z,1.8
2019-02-11T00:55:24.074Z,1.8
2019-02-11T00:55:31.957Z,1.6
2019-02-11T00:55:39.875Z,1.5
2019-02-11T00:55:48.766Z,1.5
2019-02-11T00:55:56.676Z,1.4
2019-02-11T00:56:04.581Z,1.4
2019-02-11T00:56:12.439Z,1.5
2019-02-11T00:56:20.330Z,1.5
2019-02-11T00:56:28.210Z,1.7
2019-02-11T00:56:37.083Z,1.8
2019-02-11T00:56:45.015Z,1.8
2019-02-11T00:56:52.883Z,1.8
2019-02-11T00:57:00.809Z,1.5
2019-02-11T00:57:08.694Z,1.5
2019-02-11T00:57:16.596Z,1.5
2019-02-11T00:57:24.535Z,1.4
2019-02-11T00:57:32.443Z,1.5
2019-02-11T00:57:40.317Z,1.5
2019-02-11T00:57:48.222Z,1.6
2019-02-11T00:57:56.114Z,1.6
2019-02-11T00:58:04.027Z,1.6
2019-02-11T00:58:11.950Z,1.7
2019-02-11T00:58:20.537Z,1.6
2019-02-11T00:58:28.427Z,1.5
2019-02-11T00:58:36.300Z,1.5
2019-02-11T00:58:44.195Z,1.3
2019-02-11T00:58:52.056Z,1.3
2019-02-11T00:59:00.929Z,1.4
2019-02-11T00:59:08.846Z,1.4
2019-02-11T00:59:16.743Z,1.4
2019-02-11T00:59:25.605Z,1.4
2019-02-11T00:59:33.465Z,1.4
2019-02-11T00:59:41.356Z,1.5
2019-02-11T00:59:49.246Z,1.6
2019-02-11T00:59:57.138Z,1.5
2019-02-11T01:00:05.027Z,1.8
2019-02-11T01:00:13.939Z,1.8
2019-02-11T01:00:21.889Z,1.8
2019-02-11T01:00:29.723Z,1.6
2019-02-11T01:00:37.623Z,1.5
2019-02-11T01:00:45.547Z,1.5
2019-02-11T01:00:53.445Z,1.5
2019-02-11T01:01:01.297Z,1.4
2019-02-11T01:01:09.165Z,1.4
2019-02-11T01:01:17.098Z,1.3
2019-02-11T01:01:25.043Z,1.5
2019-02-11T01:01:32.940Z,1.5
2019-02-11T01:01:40.881Z,1.6
2019-02-11T01:01:48.997Z,1.7
2019-02-11T01:01:56.894Z,1.7
2019-02-11T01:02:04.774Z,1.8
2019-02-11T01:02:12.663Z,1.6
2019-02-11T01:02:20.548Z,1.6
2019-02-11T01:02:28.425Z,1.5
2019-02-11T01:02:36.339Z,1.7
2019-02-11T01:02:44.257Z,1.7
2019-02-11T01:02:52.153Z,1.6
2019-02-11T01:03:00.041Z,1.6
2019-02-11T01:03:08.981Z,1.5
2019-02-11T01:03:16.863Z,1.6
2019-02-11T01:03:24.745Z,1.6
2019-02-11T01:03:32.651Z,1.5
2019-02-11T01:03:41.541Z,1.6
2019-02-11T01:03:49.456Z,1.5
2019-02-11T01:03:57.341Z,1.6
2019-02-11T01:04:05.241Z,1.5
2019-02-11T01:04:13.103Z,1.5
2019-02-11T01:04:22.011Z,1.4
2019-02-11T01:04:29.929Z,1.5
2019-02-11T01:04:37.856Z,1.5
2019-02-11T01:04:46.763Z,1.6
2019-02-11T01:04:54.658Z,1.5
2019-02-11T01:05:02.602Z,1.5
2019-02-11T01:05:10.469Z,1.4
2019-02-11T01:05:18.362Z,1.4
2019-02-11T01:05:26.253Z,1.4
2019-02-11T01:05:34.139Z,1.4
2019-02-11T01:05:42.006Z,1.4
2019-02-11T01:05:49.919Z,1.5
2019-02-11T01:05:57.801Z,1.5
2019-02-11T01:06:05.704Z,1.6
2019-02-11T01:06:13.615Z,1.6
2019-02-11T01:06:21.493Z,1.5
2019-02-11T01:06:29.396Z,1.6
2019-02-11T01:06:37.296Z,1.5
2019-02-11T01:06:45.177Z,1.6
2019-02-11T01:06:53.092Z,1.6
2019-02-11T01:07:00.978Z,1.5
2019-02-11T01:07:09.924Z,1.4
2019-02-11T01:07:17.828Z,1.3
2019-02-11T01:07:25.694Z,1.3
2019-02-11T01:07:33.575Z,1.4
2019-02-11T01:07:41.477Z,1.4
2019-02-11T01:07:50.363Z,1.4
2019-02-11T01:07:58.223Z,1.4
2019-02-11T01:08:06.111Z,1.5
2019-02-11T01:08:13.991Z,1.5
2019-02-11T01:08:22.862Z,1.5
2019-02-11T01:08:31.737Z,1.6
2019-02-11T01:08:40.597Z,1.6
2019-02-11T01:08:48.480Z,1.6
2019-02-11T01:08:56.405Z,1.4
2019-02-11T01:09:04.316Z,1.4
2019-02-11T01:09:12.229Z,1.3
2019-02-11T01:09:20.170Z,1.4
2019-02-11T01:09:28.117Z,1.5
2019-02-11T01:09:35.985Z,1.5
2019-02-11T01:09:43.904Z,1.6
2019-02-11T01:09:52.804Z,1.5
2019-02-11T01:10:01.705Z,1.3
2019-02-11T01:10:10.589Z,1.3
2019-02-11T01:10:18.456Z,1.4
2019-02-11T01:10:26.345Z,1.7
2019-02-11T01:10:34.236Z,1.7
2019-02-11T01:10:42.106Z,1.7
2019-02-11T01:10:50.023Z,1.6
2019-02-11T01:10:57.991Z,1.5
2019-02-11T01:11:05.883Z,1.5
2019-02-11T01:11:13.779Z,1.6
2019-02-11T01:11:21.672Z,1.5
2019-02-11T01:11:29.566Z,1.5
2019-02-11T01:11:37.467Z,1.4
2019-02-11T01:11:45.395Z,1.4
2019-02-11T01:11:53.263Z,1.4
2019-02-11T01:12:01.156Z,1.5
2019-02-11T01:12:09.081Z,1.5
2019-02-11T01:12:16.962Z,1.6
2019-02-11T01:12:24.845Z,1.5
2019-02-11T01:12:32.724Z,1.6
2019-02-11T01:12:40.643Z,1.6
2019-02-11T01:12:48.522Z,1.6
2019-02-11T01:12:56.405Z,1.6
2019-02-11T01:13:04.277Z,1.6
2019-02-11T01:13:12.183Z,1.5
2019-02-11T01:13:27.368Z,1.6
2019-02-11T01:13:31.922Z,1.7
2019-02-11T01:13:39.837Z,1.6
2019-02-11T01:13:48.704Z,1.7
2019-02-11T01:13:57.575Z,1.6
2019-02-11T01:14:05.473Z,1.6
2019-02-11T01:14:13.426Z,1.7
2019-02-11T01:14:21.284Z,1.7
2019-02-11T01:14:29.215Z,1.8
2019-02-11T01:14:37.107Z,1.8
2019-02-11T01:14:44.997Z,1.7
2019-02-11T01:14:52.912Z,1.6
2019-02-11T01:15:00.832Z,1.5
2019-02-11T01:15:08.704Z,1.4
2019-02-11T01:15:16.597Z,1.4
2019-02-11T01:15:24.509Z,1.5
2019-02-11T01:15:32.395Z,1.6
2019-02-11T01:15:40.321Z,1.6
2019-02-11T01:15:49.194Z,1.6
2019-02-11T01:15:58.092Z,1.6
2019-02-11T01:16:06.026Z,1.5
2019-02-11T01:16:13.892Z,1.6
2019-02-11T01:16:21.808Z,1.7
2019-02-11T01:16:29.681Z,1.7
2019-02-11T01:16:37.546Z,1.7
2019-02-11T01:16:45.410Z,1.6
2019-02-11T01:16:53.384Z,1.6
2019-02-11T01:17:02.234Z,1.5
2019-02-11T01:17:11.122Z,1.6
2019-02-11T01:17:19.029Z,1.5
2019-02-11T01:17:26.935Z,1.7
2019-02-11T01:17:34.824Z,1.7
2019-02-11T01:17:44.739Z,1.7
2019-02-11T01:17:52.677Z,1.7
2019-02-11T01:18:00.573Z,1.7
2019-02-11T01:18:08.476Z,1.7
2019-02-11T01:18:16.358Z,1.5
2019-02-11T01:18:24.252Z,1.5
2019-02-11T01:18:32.135Z,1.5
2019-02-11T01:18:40.035Z,1.5
2019-02-11T01:18:47.933Z,1.6
2019-02-11T01:18:55.827Z,1.4
2019-02-11T01:19:03.688Z,1.5
2019-02-11T01:19:11.608Z,1.5
2019-02-11T01:19:19.502Z,1.4
2019-02-11T01:19:27.421Z,1.4
2019-02-11T01:19:35.314Z,1.4
2019-02-11T01:19:43.209Z,1.6
2019-02-11T01:19:51.080Z,1.6
2019-02-11T01:19:58.998Z,1.6
2019-02-11T01:20:06.890Z,1.6
2019-02-11T01:20:14.775Z,1.4
2019-02-11T01:20:22.673Z,1.4
2019-02-11T01:20:30.531Z,1.4
2019-02-11T01:20:38.423Z,1.3
2019-02-11T01:20:46.319Z,1.5
2019-02-11T01:20:54.195Z,1.4
2019-02-11T01:21:02.081Z,1.5
2019-02-11T01:21:10.982Z,1.6
2019-02-11T01:21:18.855Z,1.5
2019-02-11T01:21:26.779Z,1.4
2019-02-11T01:21:34.655Z,1.4
2019-02-11T01:21:42.535Z,1.4
2019-02-11T01:21:50.419Z,1.5
2019-02-11T01:21:58.300Z,1.6
2019-02-11T01:22:07.250Z,1.4
2019-02-11T01:22:15.122Z,1.6
2019-02-11T01:22:22.995Z,1.4
2019-02-11T01:22:30.905Z,1.5
2019-02-11T01:22:38.803Z,1.5
2019-02-11T01:22:46.733Z,1.5
2019-02-11T01:22:54.700Z,1.5
2019-02-11T01:23:02.561Z,1.5
2019-02-11T01:23:10.435Z,1.6
2019-02-11T01:23:18.303Z,1.5
2019-02-11T01:23:26.165Z,1.6
2019-02-11T01:23:34.052Z,1.7
2019-02-11T01:23:41.928Z,1.6
2019-02-11T01:23:49.817Z,1.6
2019-02-11T01:23:57.712Z,1.5
2019-02-11T01:24:05.625Z,1.5
2019-02-11T01:24:13.512Z,1.4
2019-02-11T01:24:21.413Z,1.4
2019-02-11T01:24:29.318Z,1.4
2019-02-11T01:24:37.223Z,1.4
2019-02-11T01:24:45.108Z,1.3
2019-02-11T01:24:52.983Z,1.3
2019-02-11T01:25:01.913Z,1.4
2019-02-11T01:25:10.776Z,1.4
2019-02-11T01:25:18.648Z,1.5
2019-02-11T01:25:26.513Z,1.5
2019-02-11T01:25:34.412Z,1.5
2019-02-11T01:25:42.276Z,1.5
2019-02-11T01:25:50.186Z,1.5
2019-02-11T01:25:58.156Z,1.4
2019-02-11T01:26:06.040Z,1.4
2019-02-11T01:26:14.934Z,1.3
2019-02-11T01:26:22.822Z,1.4
2019-02-11T01:26:30.694Z,1.5
2019-02-11T01:26:38.571Z,1.6
2019-02-11T01:26:46.487Z,1.7
2019-02-11T01:26:54.380Z,1.6
2019-02-11T01:27:02.275Z,1.6
2019-02-11T01:27:10.174Z,1.5
2019-02-11T01:27:18.066Z,1.3
2019-02-11T01:27:25.938Z,1.4
2019-02-11T01:27:33.818Z,1.4
2019-02-11T01:27:41.713Z,1.6
2019-02-11T01:27:49.584Z,1.8
2019-02-11T01:27:57.497Z,1.6
2019-02-11T01:28:05.390Z,1.5
2019-02-11T01:28:13.270Z,1.4
2019-02-11T01:28:21.143Z,1.4
2019-02-11T01:28:29.045Z,1.4
2019-02-11T01:28:36.934Z,1.5
2019-02-11T01:28:44.804Z,1.4
2019-02-11T01:28:52.693Z,1.4
2019-02-11T01:29:00.587Z,1.5
2019-02-11T01:29:08.488Z,1.6
2019-02-11T01:29:16.365Z,1.6
2019-02-11T01:29:24.220Z,1.5
2019-02-11T01:29:32.124Z,1.5
2019-02-11T01:29:40.007Z,1.3
2019-02-11T01:29:47.905Z,1.4
2019-02-11T01:29:55.769Z,1.5
2019-02-11T01:30:03.654Z,1.5
2019-02-11T01:30:11.519Z,1.7
2019-02-11T01:30:19.383Z,1.7
2019-02-11T01:30:27.239Z,1.7
2019-02-11T01:30:36.128Z,1.5
2019-02-11T01:30:44.034Z,1.5
2019-02-11T01:30:52.951Z,1.4
2019-02-11T01:31:00.856Z,1.5
2019-02-11T01:31:08.734Z,1.5
2019-02-11T01:31:16.628Z,1.4
2019-02-11T01:31:24.511Z,1.4
2019-02-11T01:31:32.400Z,1.3
2019-02-11T01:31:40.271Z,1.4
2019-02-11T01:31:48.162Z,1.5
2019-02-11T01:31:57.064Z,1.5
2019-02-11T01:32:04.956Z,1.4
2019-02-11T01:32:12.856Z,1.4
2019-02-11T01:32:20.742Z,1.3
2019-02-11T01:32:28.684Z,1.3
2019-02-11T01:32:36.582Z,1.3
2019-02-11T01:32:44.536Z,1.3
2019-02-11T01:32:53.466Z,1.2
2019-02-11T01:33:01.310Z,1.3
2019-02-11T01:33:09.198Z,1.4
2019-02-11T01:33:17.080Z,1.5
2019-02-11T01:33:24.966Z,1.5
2019-02-11T01:33:32.847Z,1.4
2019-02-11T01:33:40.747Z,1.4
2019-02-11T01:33:48.678Z,1.3
2019-02-11T01:33:56.552Z,1.4
2019-02-11T01:34:04.426Z,1.5
2019-02-11T01:34:12.330Z,1.6
2019-02-11T01:34:20.188Z,1.4
2019-02-11T01:34:28.128Z,1.5
2019-02-11T01:34:35.999Z,1.5
2019-02-11T01:34:43.872Z,1.4
2019-02-11T01:34:51.744Z,1.5
2019-02-11T01:34:59.636Z,1.6
2019-02-11T01:35:07.520Z,1.6
2019-02-11T01:35:15.411Z,1.5
2019-02-11T01:35:23.330Z,1.6
2019-02-11T01:35:31.208Z,1.6
2019-02-11T01:35:39.084Z,1.7
2019-02-11T01:35:48.000Z,1.7
2019-02-11T01:35:55.888Z,1.7
2019-02-11T01:36:03.792Z,1.7
2019-02-11T01:36:11.698Z,1.6
2019-02-11T01:36:19.586Z,1.4
2019-02-11T01:36:27.487Z,1.3
2019-02-11T01:36:35.359Z,1.2
2019-02-11T01:36:43.232Z,1.2
2019-02-11T01:36:51.112Z,1.3
2019-02-11T01:36:59.016Z,1.4
2019-02-11T01:37:06.900Z,1.3
2019-02-11T01:37:14.776Z,1.3
2019-02-11T01:37:22.690Z,1.2
2019-02-11T01:37:30.599Z,1.2
2019-02-11T01:37:38.452Z,1.2
2019-02-11T01:37:46.303Z,1.3
2019-02-11T01:37:54.215Z,1.3
2019-02-11T01:38:02.169Z,1.5
2019-02-11T01:38:10.047Z,1.6
2019-02-11T01:38:17.943Z,1.6
2019-02-11T01:38:25.920Z,1.6
2019-02-11T01:38:33.796Z,1.5
2019-02-11T01:38:41.677Z,1.5
2019-02-11T01:38:49.612Z,1.4
2019-02-11T01:38:58.546Z,1.3
2019-02-11T01:39:06.434Z,1.3
2019-02-11T01:39:14.309Z,1.4
2019-02-11T01:39:22.226Z,1.5
2019-02-11T01:39:30.142Z,1.7
2019-02-11T01:39:38.025Z,1.7
2019-02-11T01:39:46.066Z,1.7
2019-02-11T01:39:54.944Z,1.5
2019-02-11T01:40:02.827Z,1.5
2019-02-11T01:40:10.739Z,1.4
2019-02-11T01:40:18.642Z,1.3
2019-02-11T01:40:26.526Z,1.3
2019-02-11T01:40:34.406Z,1.4
2019-02-11T01:40:42.294Z,1.3
2019-02-11T01:40:50.174Z,1.3
2019-02-11T01:40:58.094Z,1.4
2019-02-11T01:41:05.962Z,1.5
2019-02-11T01:41:13.826Z,1.5
2019-02-11T01:41:22.743Z,1.6
2019-02-11T01:41:30.629Z,1.6
2019-02-11T01:41:38.597Z,1.4
2019-02-11T01:41:46.460Z,1.3
2019-02-11T01:41:54.345Z,1.1
2019-02-11T01:42:02.252Z,1.2
2019-02-11T01:42:10.148Z,1.3
2019-02-11T01:42:18.010Z,1.4
2019-02-11T01:42:25.924Z,1.5
2019-02-11T01:42:33.850Z,1.5
2019-02-11T01:42:41.727Z,1.5
2019-02-11T01:42:49.628Z,1.6
2019-02-11T01:42:57.516Z,1.4
2019-02-11T01:43:05.425Z,1.4
2019-02-11T01:43:13.320Z,1.5
2019-02-11T01:43:21.212Z,1.4
2019-02-11T01:43:35.902Z,1.5
2019-02-11T01:43:40.914Z,1.4
2019-02-11T01:43:48.783Z,1.4
2019-02-11T01:43:56.686Z,1.4
2019-02-11T01:44:04.566Z,1.5
2019-02-11T01:44:12.478Z,1.4
2019-02-11T01:44:20.358Z,1.3
2019-02-11T01:44:28.284Z,1.4
2019-02-11T01:44:36.176Z,1.3
2019-02-11T01:44:44.057Z,1.4
2019-02-11T01:44:51.981Z,1.5
2019-02-11T01:44:59.938Z,1.3
2019-02-11T01:45:07.814Z,1.3
2019-02-11T01:45:15.714Z,1.5
2019-02-11T01:45:24.637Z,1.4
2019-02-11T01:45:32.508Z,1.4
2019-02-11T01:45:40.404Z,1.4
2019-02-11T01:45:48.304Z,1.3
2019-02-11T01:45:56.207Z,1.4
2019-02-11T01:46:05.092Z,1.4
2019-02-11T01:46:12.960Z,1.4
2019-02-11T01:46:20.839Z,1.4
2019-02-11T01:46:28.743Z,1.3
2019-02-11T01:46:36.628Z,1.4
2019-02-11T01:46:44.658Z,1.3
2019-02-11T01:46:52.554Z,1.3
2019-02-11T01:47:01.473Z,1.5
2019-02-11T01:47:09.358Z,1.6
2019-02-11T01:47:17.224Z,1.6
2019-02-11T01:47:25.129Z,1.6
2019-02-11T01:47:33.008Z,1.5
2019-02-11T01:47:40.899Z,1.4
2019-02-11T01:47:48.800Z,1.3
2019-02-11T01:47:56.714Z,1.3
2019-02-11T01:48:04.585Z,1.4
2019-02-11T01:48:12.468Z,1.4
2019-02-11T01:48:20.337Z,1.6
2019-02-11T01:48:28.235Z,1.5
2019-02-11T01:48:36.155Z,1.5
2019-02-11T01:48:44.016Z,1.4
2019-02-11T01:48:51.972Z,1.3
2019-02-11T01:48:59.882Z,1.4
2019-02-11T01:49:07.757Z,1.4
2019-02-11T01:49:15.675Z,1.4
2019-02-11T01:49:23.537Z,1.5
2019-02-11T01:49:31.428Z,1.4
2019-02-11T01:49:39.324Z,1.5
2019-02-11T01:49:47.191Z,1.5
2019-02-11T01:49:55.070Z,1.5
2019-02-11T01:50:02.972Z,1.4
2019-02-11T01:50:10.840Z,1.3
2019-02-11T01:50:18.716Z,1.2
2019-02-11T01:50:26.638Z,1.2
2019-02-11T01:50:34.521Z,1.1
2019-02-11T01:50:42.476Z,1.1